createdAt,value
2022-10-20T00:00:05.688Z,6.94
2022-10-20T00:03:13.188Z,6.91
2022-10-20T00:06:20.999Z,6.97
2022-10-20T00:09:28.537Z,6.91
2022-10-20T00:12:36.455Z,6.87
2022-10-20T00:15:44.730Z,6.86
2022-10-20T00:18:52.278Z,6.89
2022-10-20T00:21:59.540Z,6.86
2022-10-20T00:25:10.491Z,6.84
2022-10-20T00:28:17.728Z,6.86
2022-10-20T00:31:25.925Z,6.87
2022-10-20T00:34:33.949Z,6.89
2022-10-20T00:37:41.173Z,6.89
2022-10-20T00:40:49.273Z,6.91
2022-10-20T00:43:57.414Z,6.95
2022-10-20T00:47:04.704Z,6.95
2022-10-20T00:50:12.724Z,6.94
2022-10-20T00:53:20.695Z,6.98
2022-10-20T00:56:28.375Z,6.97
2022-10-20T00:59:35.998Z,6.91
2022-10-20T01:02:43.535Z,6.86
2022-10-20T01:05:51.626Z,6.84
2022-10-20T01:08:59.175Z,6.80
2022-10-20T01:12:06.935Z,6.73
2022-10-20T01:15:14.908Z,6.72
2022-10-20T01:18:22.035Z,6.72
2022-10-20T01:21:29.680Z,6.68
2022-10-20T01:24:37.336Z,6.69
2022-10-20T01:27:44.458Z,6.68
2022-10-20T01:30:52.223Z,6.65
2022-10-20T01:34:00.144Z,6.66
2022-10-20T01:37:07.231Z,6.65
2022-10-20T01:40:15.285Z,6.63
2022-10-20T01:43:22.440Z,6.59
2022-10-20T01:46:30.352Z,6.58
2022-10-20T01:49:38.370Z,6.59
2022-10-20T01:52:45.558Z,6.54
2022-10-20T01:55:53.613Z,6.56
2022-10-20T01:59:01.685Z,6.58
2022-10-20T02:02:08.883Z,6.58
2022-10-20T02:05:16.986Z,6.53
2022-10-20T02:08:25.057Z,6.51
2022-10-20T02:11:32.297Z,6.47
2022-10-20T02:14:40.207Z,6.50
2022-10-20T02:17:47.688Z,6.50
2022-10-20T02:20:55.219Z,6.53
2022-10-20T02:24:03.360Z,6.51
2022-10-20T02:27:10.928Z,6.50
2022-10-20T02:30:18.537Z,6.48
2022-10-20T02:33:26.161Z,6.50
2022-10-20T02:36:34.202Z,6.48
2022-10-20T02:39:41.820Z,6.48
2022-10-20T02:42:49.615Z,6.47
2022-10-20T02:45:57.351Z,6.43
2022-10-20T02:49:05.312Z,6.43
2022-10-20T02:52:13.002Z,6.41
2022-10-20T02:55:20.645Z,6.40
2022-10-20T02:58:28.364Z,6.38
2022-10-20T03:01:36.412Z,6.35
2022-10-20T03:04:44.040Z,6.33
2022-10-20T03:07:51.674Z,6.36
2022-10-20T03:10:59.816Z,6.35
2022-10-20T03:14:07.410Z,6.35
2022-10-20T03:17:15.008Z,6.30
2022-10-20T03:20:22.805Z,6.29
2022-10-20T03:23:29.845Z,6.26
2022-10-20T03:26:37.617Z,6.25
2022-10-20T03:29:45.588Z,6.25
2022-10-20T03:32:52.712Z,6.26
2022-10-20T03:36:00.640Z,6.25
2022-10-20T03:39:08.460Z,6.19
2022-10-20T03:42:15.620Z,6.14
2022-10-20T03:45:23.433Z,6.13
2022-10-20T03:48:31.091Z,6.11
2022-10-20T03:51:38.675Z,6.13
2022-10-20T03:54:46.435Z,6.13
2022-10-20T03:57:53.894Z,6.13
2022-10-20T04:01:01.457Z,6.14
2022-10-20T04:04:08.944Z,6.14
2022-10-20T04:07:16.504Z,6.16
2022-10-20T04:10:24.004Z,6.16
2022-10-20T04:13:31.675Z,6.16
2022-10-20T04:16:39.288Z,6.14
2022-10-20T04:19:46.855Z,6.13
2022-10-20T04:22:54.497Z,6.13
2022-10-20T04:26:02.206Z,6.14
2022-10-20T04:29:09.847Z,6.13
2022-10-20T04:32:17.556Z,6.11
2022-10-20T04:35:25.049Z,6.10
2022-10-20T04:38:33.171Z,6.11
2022-10-20T04:41:40.916Z,6.14
2022-10-20T04:44:48.685Z,6.13
2022-10-20T04:47:56.220Z,6.14
2022-10-20T04:51:04.341Z,6.14
2022-10-20T04:54:11.608Z,6.18
2022-10-20T04:57:19.412Z,6.14
2022-10-20T05:00:27.432Z,6.21
2022-10-20T05:03:34.893Z,6.26
2022-10-20T05:06:42.482Z,6.26
2022-10-20T05:09:50.442Z,6.26
2022-10-20T05:12:57.945Z,6.30
2022-10-20T05:16:05.654Z,6.32
2022-10-20T05:19:13.634Z,6.29
2022-10-20T05:22:20.826Z,6.32
2022-10-20T05:25:36.452Z,6.28
2022-10-20T05:28:33.615Z,6.26
2022-10-20T05:31:40.787Z,6.25
2022-10-20T05:34:48.738Z,6.26
2022-10-20T05:37:56.617Z,6.26
2022-10-20T05:41:03.887Z,6.25
2022-10-20T05:44:11.550Z,6.21
2022-10-20T05:47:19.158Z,6.16
2022-10-20T05:50:26.701Z,6.16
2022-10-20T05:53:34.741Z,6.13
2022-10-20T05:56:42.318Z,6.10
2022-10-20T05:59:49.870Z,6.10
2022-10-20T06:02:58.037Z,6.10
2022-10-20T06:06:05.513Z,6.11
2022-10-20T06:09:12.933Z,6.13
2022-10-20T06:12:20.372Z,6.16
2022-10-20T06:15:28.650Z,6.16
2022-10-20T06:18:36.239Z,6.22
2022-10-20T06:21:43.674Z,6.26
2022-10-20T06:24:51.435Z,6.30
2022-10-20T06:27:58.993Z,6.30
2022-10-20T06:31:06.316Z,6.40
2022-10-20T06:34:14.151Z,6.48
2022-10-20T06:37:21.636Z,6.51
2022-10-20T06:40:29.287Z,6.54
2022-10-20T06:43:37.338Z,6.58
2022-10-20T06:46:44.618Z,6.62
2022-10-20T06:49:52.558Z,6.69
2022-10-20T06:53:00.551Z,6.73
2022-10-20T06:56:07.630Z,6.77
2022-10-20T06:59:15.287Z,6.80
2022-10-20T07:02:23.181Z,6.84
2022-10-20T07:05:30.401Z,6.89
2022-10-20T07:08:38.555Z,6.95
2022-10-20T07:11:45.985Z,6.95
2022-10-20T07:14:53.482Z,6.99
2022-10-20T07:18:01.303Z,6.99
2022-10-20T07:21:08.885Z,7.02
2022-10-20T07:24:16.414Z,7.04
2022-10-20T07:27:24.315Z,7.04
2022-10-20T07:30:31.519Z,7.08
2022-10-20T07:33:39.539Z,7.13
2022-10-20T07:36:47.405Z,7.16
2022-10-20T07:39:54.656Z,7.23
2022-10-20T07:43:02.537Z,7.31
2022-10-20T07:46:10.057Z,7.38
2022-10-20T07:52:22.853Z,7.56
2022-10-20T07:55:38.672Z,7.60
2022-10-20T07:58:34.970Z,7.67
2022-10-20T08:01:42.568Z,7.72
2022-10-20T08:04:50.561Z,7.79
2022-10-20T08:07:58.435Z,7.89
2022-10-20T08:11:06.011Z,7.99
2022-10-20T08:14:13.839Z,8.08
2022-10-20T08:17:21.360Z,8.20
2022-10-20T08:20:29.061Z,8.28
2022-10-20T08:23:36.806Z,8.35
2022-10-20T08:26:44.115Z,8.44
2022-10-20T08:30:06.366Z,8.53
2022-10-20T08:32:57.294Z,8.60
2022-10-20T08:36:06.288Z,8.71
2022-10-20T08:39:14.196Z,8.76
2022-10-20T08:42:22.091Z,8.81
2022-10-20T08:45:29.324Z,8.88
2022-10-20T08:48:37.459Z,8.99
2022-10-20T08:51:44.867Z,9.05
2022-10-20T08:54:52.430Z,9.13
2022-10-20T08:58:00.451Z,9.25
2022-10-20T09:01:07.663Z,9.32
2022-10-20T09:04:15.581Z,9.35
2022-10-20T09:07:23.463Z,9.42
2022-10-20T09:10:30.957Z,9.43
2022-10-20T09:13:38.575Z,9.49
2022-10-20T09:16:59.289Z,9.53
2022-10-20T09:19:50.818Z,9.57
2022-10-20T09:23:01.332Z,9.58
2022-10-20T09:26:01.049Z,9.52
2022-10-20T09:29:13.453Z,9.52
2022-10-20T09:32:40.822Z,9.63
2022-10-20T09:35:15.898Z,9.76
2022-10-20T09:38:23.728Z,9.86
2022-10-20T09:41:31.258Z,10.00
2022-10-20T09:44:39.371Z,10.12
2022-10-20T09:47:47.197Z,10.15
2022-10-20T09:50:54.912Z,10.10
2022-10-20T09:54:02.403Z,10.15
2022-10-20T09:57:10.076Z,10.24
2022-10-20T10:00:35.954Z,10.40
2022-10-20T10:03:22.894Z,10.46
2022-10-20T10:06:30.626Z,10.63
2022-10-20T10:09:38.386Z,10.78
2022-10-20T10:12:46.336Z,10.83
2022-10-20T10:15:54.467Z,10.83
2022-10-20T10:19:02.433Z,10.83
2022-10-20T10:22:10.340Z,10.81
2022-10-20T10:25:18.568Z,10.88
2022-10-20T10:31:34.219Z,11.11
2022-10-20T10:34:42.352Z,11.20
2022-10-20T10:37:49.820Z,11.28
2022-10-20T10:40:57.955Z,11.32
2022-10-20T10:44:06.273Z,11.32
2022-10-20T10:47:13.740Z,11.34
2022-10-20T10:50:22.014Z,11.43
2022-10-20T10:53:30.666Z,11.53
2022-10-20T10:56:38.155Z,11.62
2022-10-20T10:59:46.417Z,11.67
2022-10-20T11:02:54.626Z,11.68
2022-10-20T11:06:02.017Z,11.71
2022-10-20T11:09:10.308Z,11.83
2022-10-20T11:12:18.240Z,11.89
2022-10-20T11:15:26.081Z,11.93
2022-10-20T11:18:34.293Z,11.96
2022-10-20T11:21:41.910Z,11.99
2022-10-20T11:24:49.879Z,11.96
2022-10-20T11:27:57.723Z,12.04
2022-10-20T11:31:06.020Z,12.20
2022-10-20T11:34:13.913Z,12.41
2022-10-20T11:37:21.562Z,12.75
2022-10-20T11:40:30.003Z,12.97
2022-10-20T11:43:37.877Z,13.11
2022-10-20T11:46:45.695Z,13.27
2022-10-20T11:49:53.847Z,13.41
2022-10-20T11:53:01.557Z,13.59
2022-10-20T11:56:09.290Z,13.80
2022-10-20T11:59:17.519Z,14.01
2022-10-20T12:02:25.080Z,14.12
2022-10-20T12:05:32.912Z,14.14
2022-10-20T12:08:41.116Z,14.13
2022-10-20T12:11:48.496Z,14.16
2022-10-20T12:14:56.583Z,14.20
2022-10-20T12:18:04.775Z,14.21
2022-10-20T12:21:12.133Z,14.20
2022-10-20T12:24:20.326Z,14.14
2022-10-20T12:27:28.488Z,14.09
2022-10-20T12:30:35.959Z,14.10
2022-10-20T12:33:43.737Z,14.24
2022-10-20T12:36:51.563Z,14.35
2022-10-20T12:39:59.493Z,14.29
2022-10-20T12:43:07.773Z,14.16
2022-10-20T12:46:15.820Z,14.07
2022-10-20T12:49:16.459Z,13.84
2022-10-20T12:52:24.430Z,13.77
2022-10-20T12:55:31.917Z,13.76
2022-10-20T12:58:40.055Z,13.65
2022-10-20T13:01:47.890Z,13.79
2022-10-20T13:04:55.600Z,13.74
2022-10-20T13:08:03.778Z,13.76
2022-10-20T13:11:11.578Z,13.69
2022-10-20T13:14:19.440Z,13.67
2022-10-20T13:17:27.409Z,13.62
2022-10-20T13:20:35.305Z,13.59
2022-10-20T13:23:43.191Z,13.52
2022-10-20T13:26:51.164Z,13.54
2022-10-20T13:29:59.323Z,13.61
2022-10-20T13:36:12.115Z,13.62
2022-10-20T13:39:20.015Z,13.59
2022-10-20T13:42:27.898Z,13.52
2022-10-20T13:45:35.829Z,13.46
2022-10-20T13:48:43.682Z,13.43
2022-10-20T13:51:51.138Z,13.41
2022-10-20T13:54:58.977Z,13.37
2022-10-20T13:58:06.933Z,13.29
2022-10-20T14:01:08.037Z,13.24
2022-10-20T14:04:16.362Z,13.20
2022-10-20T14:07:23.965Z,13.15
2022-10-20T14:10:32.164Z,13.14
2022-10-20T14:13:40.372Z,13.06
2022-10-20T14:16:47.697Z,13.06
2022-10-20T14:19:56.015Z,13.00
2022-10-20T14:23:04.425Z,12.99
2022-10-20T14:26:11.757Z,12.99
2022-10-20T14:29:19.918Z,12.93
2022-10-20T14:32:27.690Z,12.89
2022-10-20T14:35:35.453Z,12.93
2022-10-20T14:38:43.724Z,12.93
2022-10-20T14:41:51.602Z,12.89
2022-10-20T14:44:59.625Z,12.89
2022-10-20T14:48:09.112Z,12.92
2022-10-20T14:51:17.424Z,12.88
2022-10-20T14:54:25.287Z,12.85
2022-10-20T14:57:33.294Z,12.85
2022-10-20T15:00:41.151Z,12.85
2022-10-20T15:03:49.633Z,12.84
2022-10-20T15:06:57.467Z,12.81
2022-10-20T15:10:05.595Z,12.79
2022-10-20T15:13:13.936Z,12.78
2022-10-20T15:16:21.811Z,12.79
2022-10-20T15:19:29.666Z,12.78
2022-10-20T15:22:37.604Z,12.75
2022-10-20T15:25:46.000Z,12.74
2022-10-20T15:28:53.853Z,12.70
2022-10-20T15:32:01.824Z,12.66
2022-10-20T15:35:09.795Z,12.63
2022-10-20T15:38:17.066Z,12.60
2022-10-20T15:41:25.136Z,12.57
2022-10-20T15:44:32.817Z,12.52
2022-10-20T15:47:40.047Z,12.49
2022-10-20T15:50:47.949Z,12.45
2022-10-20T15:53:55.629Z,12.38
2022-10-20T15:57:04.060Z,12.33
2022-10-20T16:00:12.299Z,12.29
2022-10-20T16:03:20.111Z,12.23
2022-10-20T16:06:27.760Z,12.19
2022-10-20T16:09:35.869Z,12.15
2022-10-20T16:12:43.404Z,12.15
2022-10-20T16:15:51.078Z,12.13
2022-10-20T16:18:59.191Z,12.12
2022-10-20T16:22:06.936Z,12.13
2022-10-20T16:25:14.608Z,12.19
2022-10-20T16:28:22.757Z,12.19
2022-10-20T16:31:30.006Z,12.16
2022-10-20T16:34:37.522Z,12.16
2022-10-20T16:37:44.975Z,12.16
2022-10-20T16:40:53.282Z,12.13
2022-10-20T16:44:01.446Z,12.16
2022-10-20T16:47:09.804Z,12.16
2022-10-20T16:50:17.813Z,12.16
2022-10-20T16:53:25.206Z,12.19
2022-10-20T16:56:32.924Z,12.20
2022-10-20T16:59:40.605Z,12.21
2022-10-20T17:02:48.486Z,12.20
2022-10-20T17:05:56.143Z,12.21
2022-10-20T17:09:04.479Z,12.24
2022-10-20T17:12:12.073Z,12.26
2022-10-20T17:15:20.354Z,12.29
2022-10-20T17:18:28.463Z,12.33
2022-10-20T17:21:35.903Z,12.33
2022-10-20T17:24:44.214Z,12.33
2022-10-20T17:27:52.395Z,12.37
2022-10-20T17:30:59.854Z,12.34
2022-10-20T17:34:08.191Z,12.33
2022-10-20T17:37:16.641Z,12.37
2022-10-20T17:40:24.095Z,12.31
2022-10-20T17:43:32.172Z,12.26
2022-10-20T17:46:39.961Z,12.20
2022-10-20T17:49:47.918Z,12.15
2022-10-20T17:52:56.041Z,12.11
2022-10-20T17:56:03.210Z,12.02
2022-10-20T18:02:19.172Z,11.93
2022-10-20T18:05:26.543Z,11.87
2022-10-20T18:08:34.684Z,11.85
2022-10-20T18:11:42.425Z,11.80
2022-10-20T18:14:50.275Z,11.77
2022-10-20T18:17:58.465Z,11.75
2022-10-20T18:21:06.025Z,11.71
2022-10-20T18:24:13.829Z,11.70
2022-10-20T18:27:22.165Z,11.67
2022-10-20T18:30:30.099Z,11.61
2022-10-20T18:33:38.081Z,11.61
2022-10-20T18:36:46.453Z,11.59
2022-10-20T18:39:55.921Z,11.56
2022-10-20T18:43:03.702Z,11.54
2022-10-20T18:46:12.504Z,11.54
2022-10-20T18:49:20.903Z,11.53
2022-10-20T18:52:28.194Z,11.50
2022-10-20T18:55:35.545Z,11.50
2022-10-20T18:58:43.293Z,11.46
2022-10-20T19:01:50.588Z,11.47
2022-10-20T19:04:58.610Z,11.46
2022-10-20T19:08:06.257Z,11.44
2022-10-20T19:11:13.789Z,11.38
2022-10-20T19:14:21.941Z,11.32
2022-10-20T19:17:29.117Z,11.29
2022-10-20T19:20:37.041Z,11.27
2022-10-20T19:23:44.629Z,11.25
2022-10-20T19:27:02.411Z,11.24
2022-10-20T19:29:56.987Z,11.21
2022-10-20T19:33:04.556Z,11.21
2022-10-20T19:36:12.074Z,11.21
2022-10-20T19:39:20.200Z,11.24
2022-10-20T19:42:27.843Z,11.21
2022-10-20T19:45:35.026Z,11.24
2022-10-20T19:48:42.298Z,11.21
2022-10-20T19:51:50.208Z,11.20
2022-10-20T19:54:57.908Z,11.19
2022-10-20T19:58:05.169Z,11.16
2022-10-20T20:01:13.308Z,11.10
2022-10-20T20:04:21.740Z,11.11
2022-10-20T20:07:28.911Z,11.10
2022-10-20T20:10:36.622Z,11.07
2022-10-20T20:13:43.872Z,11.09
2022-10-20T20:16:51.106Z,11.06
2022-10-20T20:19:59.214Z,11.03
2022-10-20T20:23:06.335Z,11.01
2022-10-20T20:26:16.174Z,11.01
2022-10-20T20:29:24.136Z,10.99
2022-10-20T20:32:31.266Z,10.98
2022-10-20T20:35:39.235Z,10.92
2022-10-20T20:38:46.677Z,10.89
2022-10-20T20:41:54.349Z,10.86
2022-10-20T20:45:01.917Z,10.83
2022-10-20T20:48:09.222Z,10.83
2022-10-20T20:51:16.700Z,10.84
2022-10-20T20:54:24.831Z,10.83
2022-10-20T20:57:33.632Z,10.81
2022-10-20T21:00:41.113Z,10.80
2022-10-20T21:03:48.201Z,10.83
2022-10-20T21:07:03.181Z,10.81
2022-10-20T21:09:59.276Z,10.81
2022-10-20T21:13:06.695Z,10.80
2022-10-20T21:16:14.501Z,10.78
2022-10-20T21:19:21.770Z,10.77
2022-10-20T21:22:29.216Z,10.77
2022-10-20T21:25:37.047Z,10.76
2022-10-20T21:28:44.165Z,10.76
2022-10-20T21:31:51.976Z,10.77
2022-10-20T21:35:00.041Z,10.77
2022-10-20T21:38:07.171Z,10.78
2022-10-20T21:41:14.840Z,10.80
2022-10-20T21:44:23.349Z,10.78
2022-10-20T21:47:30.522Z,10.78
2022-10-20T21:50:38.625Z,10.78
2022-10-20T21:53:45.925Z,10.81
2022-10-20T21:56:53.573Z,10.81
2022-10-20T22:00:01.585Z,10.81
2022-10-20T22:03:08.749Z,10.83
2022-10-20T22:06:16.806Z,10.81
2022-10-20T22:09:24.487Z,10.81
2022-10-20T22:12:31.687Z,10.84
2022-10-20T22:15:39.600Z,10.83
2022-10-20T22:18:47.589Z,10.83
2022-10-20T22:21:54.863Z,10.84
2022-10-20T22:25:02.801Z,10.88
2022-10-20T22:28:10.330Z,10.91
2022-10-20T22:31:18.246Z,10.95
2022-10-20T22:34:25.862Z,10.96
2022-10-20T22:37:33.433Z,10.96
2022-10-20T22:40:41.314Z,10.98
2022-10-20T22:43:48.805Z,11.02
2022-10-20T22:46:56.432Z,11.07
2022-10-20T22:50:03.996Z,11.10
2022-10-20T22:53:11.170Z,11.09
2022-10-20T22:56:19.149Z,11.06
2022-10-20T22:59:26.707Z,11.02
2022-10-20T23:02:33.907Z,10.99
2022-10-20T23:05:41.840Z,10.96
2022-10-20T23:08:49.925Z,10.99
2022-10-20T23:11:57.100Z,11.02
2022-10-20T23:15:05.112Z,10.98
2022-10-20T23:18:13.192Z,10.95
2022-10-20T23:21:20.413Z,10.89
2022-10-20T23:24:28.162Z,10.77
2022-10-20T23:27:35.602Z,10.68
2022-10-20T23:30:43.940Z,10.55
2022-10-20T23:33:51.785Z,10.40
2022-10-20T23:36:58.889Z,10.33
2022-10-20T23:40:06.818Z,10.26
2022-10-20T23:43:14.818Z,10.22
2022-10-20T23:46:21.956Z,10.15
2022-10-20T23:49:29.801Z,10.12
2022-10-20T23:55:45.803Z,10.24
2022-10-20T23:58:53.633Z,10.37
